X  Blizu METAR Podaci o vazduhoplovstvu     ENRY Moss Airport, Rygge
Temperatura
12°C Temperatura
12°C Tačka Rose
100% Vlaga



Vetar
4 M/S
8 MPS
13 KM/S
7 Čvorovi



130°
JI
Trenutna situacija

Delimično oblačno Delimično oblačno
Vazdušni pritisak 1008.81 (hPa) - 29.79 (inHg)
Vidljivost 6 (Milje) - 9.7 (km)
Aerodrom
Aerodromski kod. ENRY

Lokacija: Moss Airport, Rygge
Udaljenost: 12 (km)

Metar:
ENRY 150120Z AUTO 13007KT 9999 FEW022/// 12/12 Q1009

Vreme: 15-07-2024 03:20 CEST